Main page
METAR-TAF:

METAR-TAF

Airports :

Yap, Yap Island, Micronesia

Yap International Airport

latitude: 09-29N, longitude: 138-05E, elevation: 28 m

Current weather observation

The report was made 1 hour and 0 minutes ago, at 01:51 UTC
Wind 7 kt from the South
Temperature 31°C
Humidity 75%
Pressure 1010 hPa
Visibility: 19.3 km
Few clouds at a height of 1700 ft
Scattered clouds at a height of 13000 ft
Broken clouds at a height of 30000 ft

METAR: PTYA 250151Z 17007KT 12SM FEW017 SCT130 BKN300 31/26 A2982 RMK SLP098 T03090264

Time: 12:51 (02:51 UTC)

Forecast

The report was made 3 hours and 10 minutes ago, at 23:41 UTC
Forecast valid from 25 at 00 UTC to 25 at 24 UTC
Wind 8 kt from the South
Visibility: 10 km
Few clouds at a height of 1600 ft
Scattered clouds at a height of 14000 ft
showers in vicinity

TAF: PTYA 242341Z 2500/2524 19008KT P6SM VCSH FEW016 SCT140

Weather observations and forecasts of more than 4000 airports (METAR and TAF reports).

The available stations are represented by yellow and red dots on the map.

Hover mouse over dot to see the name of the station.

Then click to see weather observations and forecasts.

To change the map : click on the green buttons with a black cross to zoom in, on the green button with a dash to zoom out, or on the green arrows for adjacent maps.


METAR-TAF: